createdAt,value
2023-01-22T00:00:08.603Z,85.35
2023-01-22T00:02:37.083Z,85.15
2023-01-22T00:05:04.958Z,85.04
2023-01-22T00:07:31.501Z,85.05
2023-01-22T00:10:00.957Z,84.96
2023-01-22T00:12:27.720Z,84.85
2023-01-22T00:14:54.375Z,84.35
2023-01-22T00:17:21.124Z,84.04
2023-01-22T00:19:47.591Z,83.86
2023-01-22T00:22:14.190Z,83.91
2023-01-22T00:24:40.675Z,83.90
2023-01-22T00:27:07.156Z,83.37
2023-01-22T00:29:33.710Z,83.16
2023-01-22T00:32:00.391Z,83.28
2023-01-22T00:34:26.928Z,83.34
2023-01-22T00:36:55.224Z,83.32
2023-01-22T00:39:24.126Z,83.60
2023-01-22T00:41:51.380Z,83.92
2023-01-22T00:44:18.328Z,84.53
2023-01-22T00:46:44.968Z,84.87
2023-01-22T00:49:12.573Z,85.77
2023-01-22T00:51:39.683Z,86.11
2023-01-22T00:54:06.778Z,86.62
2023-01-22T00:56:33.585Z,87.01
2023-01-22T01:01:40.186Z,87.77
2023-01-22T01:04:06.815Z,87.88
2023-01-22T01:06:33.542Z,88.26
2023-01-22T01:09:00.756Z,88.56
2023-01-22T01:11:27.730Z,88.61
2023-01-22T01:13:54.308Z,88.35
2023-01-22T01:16:30.369Z,88.40
2023-01-22T01:19:04.574Z,88.42
2023-01-22T01:21:31.946Z,88.46
2023-01-22T01:24:00.132Z,88.52
2023-01-22T01:26:26.971Z,88.46
2023-01-22T01:28:53.965Z,88.58
2023-01-22T01:31:22.570Z,88.58
2023-01-22T01:33:49.943Z,88.86
2023-01-22T01:36:30.689Z,88.74
2023-01-22T01:39:05.894Z,89.19
2023-01-22T01:41:32.749Z,88.80
2023-01-22T01:44:17.667Z,89.29
2023-01-22T01:47:28.411Z,89.26
2023-01-22T01:49:55.021Z,88.93
2023-01-22T01:52:23.219Z,88.73
2023-01-22T01:54:54.702Z,88.93
2023-01-22T01:57:32.827Z,88.89
2023-01-22T02:00:04.572Z,88.71
2023-01-22T02:02:32.807Z,88.80
2023-01-22T02:04:59.487Z,88.79
2023-01-22T02:07:26.085Z,88.83
2023-01-22T02:09:52.762Z,88.76
2023-01-22T02:12:19.376Z,89.13
2023-01-22T02:14:46.777Z,88.99
2023-01-22T02:17:15.208Z,89.29
2023-01-22T02:19:42.518Z,89.54
2023-01-22T02:22:19.625Z,89.62
2023-01-22T02:24:46.226Z,89.74
2023-01-22T02:27:12.824Z,89.84
2023-01-22T02:29:40.039Z,89.97
2023-01-22T02:32:06.632Z,89.82
2023-01-22T02:34:33.193Z,89.59
2023-01-22T02:36:59.705Z,89.92
2023-01-22T02:39:26.270Z,89.84
2023-01-22T02:41:53.318Z,89.83
2023-01-22T02:44:19.838Z,89.90
2023-01-22T02:46:46.399Z,89.78
2023-01-22T02:49:13.579Z,89.86
2023-01-22T02:51:40.171Z,89.87
2023-01-22T02:54:08.929Z,90.01
2023-01-22T02:56:36.495Z,89.91
2023-01-22T02:59:07.280Z,90.13
2023-01-22T03:01:34.538Z,90.25
2023-01-22T03:04:11.789Z,90.24
2023-01-22T03:06:40.893Z,90.14
2023-01-22T03:09:08.954Z,90.16
2023-01-22T03:11:37.471Z,89.98
2023-01-22T03:14:22.694Z,90.35
2023-01-22T03:17:07.967Z,90.15
2023-01-22T03:19:52.976Z,90.05
2023-01-22T03:22:20.196Z,89.99
2023-01-22T03:24:52.320Z,89.92
2023-01-22T03:27:21.188Z,89.81
2023-01-22T03:29:48.443Z,89.68
2023-01-22T03:32:15.924Z,89.77
2023-01-22T03:34:42.739Z,89.28
2023-01-22T03:37:12.836Z,89.54
2023-01-22T03:39:40.339Z,89.36
2023-01-22T03:42:07.110Z,89.25
2023-01-22T03:44:33.734Z,89.33
2023-01-22T03:47:00.517Z,89.14
2023-01-22T03:49:27.004Z,89.30
2023-01-22T03:51:54.788Z,89.37
2023-01-22T03:54:21.267Z,88.93
2023-01-22T03:56:47.783Z,88.99
2023-01-22T03:59:15.737Z,89.14
2023-01-22T04:01:42.217Z,89.01
2023-01-22T04:04:08.750Z,89.24
2023-01-22T04:06:35.219Z,89.20
2023-01-22T04:09:01.848Z,88.90
2023-01-22T04:11:28.333Z,88.82
2023-01-22T04:13:55.221Z,88.97
2023-01-22T04:16:21.891Z,88.94
2023-01-22T04:18:48.483Z,88.89
2023-01-22T04:21:15.035Z,88.93
2023-01-22T04:23:41.647Z,88.79
2023-01-22T04:26:08.255Z,88.91
2023-01-22T04:28:34.740Z,88.94
2023-01-22T04:31:01.498Z,88.67
2023-01-22T04:33:28.029Z,88.80
2023-01-22T04:35:55.910Z,88.79
2023-01-22T04:38:22.447Z,88.85
2023-01-22T04:40:48.997Z,88.91
2023-01-22T04:43:15.542Z,88.67
2023-01-22T04:45:42.146Z,88.93
2023-01-22T04:48:09.315Z,88.76
2023-01-22T04:50:35.901Z,88.85
2023-01-22T04:53:03.037Z,89.04
2023-01-22T04:55:30.063Z,88.91
2023-01-22T04:58:00.850Z,89.09
2023-01-22T05:00:29.425Z,89.09
2023-01-22T05:02:57.993Z,89.20
2023-01-22T05:05:25.121Z,89.32
2023-01-22T05:07:51.988Z,89.39
2023-01-22T05:10:19.775Z,89.21
2023-01-22T05:12:46.497Z,89.12
2023-01-22T05:15:23.683Z,89.20
2023-01-22T05:17:51.849Z,89.10
2023-01-22T05:20:18.789Z,89.03
2023-01-22T05:22:45.475Z,88.93
2023-01-22T05:25:12.669Z,88.99
2023-01-22T05:27:39.184Z,89.18
2023-01-22T05:30:06.990Z,89.06
2023-01-22T05:32:33.786Z,89.03
2023-01-22T05:35:00.353Z,88.89
2023-01-22T05:37:26.811Z,89.00
2023-01-22T05:39:53.687Z,89.03
2023-01-22T05:42:23.307Z,89.01
2023-01-22T05:44:50.982Z,89.04
2023-01-22T05:47:22.926Z,88.95
2023-01-22T05:49:49.448Z,88.92
2023-01-22T05:52:16.357Z,88.91
2023-01-22T05:54:46.943Z,88.90
2023-01-22T05:57:19.347Z,88.89
2023-01-22T05:59:45.899Z,88.94
2023-01-22T06:02:12.399Z,88.91
2023-01-22T06:04:38.898Z,89.13
2023-01-22T06:07:05.736Z,89.15
2023-01-22T06:09:32.213Z,89.01
2023-01-22T06:11:58.718Z,89.28
2023-01-22T06:14:25.255Z,89.29
2023-01-22T06:16:51.737Z,89.28
2023-01-22T06:19:18.256Z,89.16
2023-01-22T06:21:44.791Z,89.42
2023-01-22T06:24:11.676Z,89.08
2023-01-22T06:26:38.393Z,89.18
2023-01-22T06:29:06.534Z,89.32
2023-01-22T06:31:33.405Z,89.46
2023-01-22T06:34:00.050Z,89.44
2023-01-22T06:36:26.791Z,89.34
2023-01-22T06:38:53.792Z,89.14
2023-01-22T06:41:20.392Z,89.52
2023-01-22T06:43:46.923Z,89.44
2023-01-22T06:46:14.858Z,89.34
2023-01-22T06:48:43.662Z,89.56
2023-01-22T06:51:11.485Z,89.42
2023-01-22T06:53:38.461Z,89.19
2023-01-22T06:56:05.751Z,89.44
2023-01-22T06:58:32.270Z,89.26
2023-01-22T07:01:04.960Z,89.19
2023-01-22T07:03:31.963Z,89.38
2023-01-22T07:06:00.193Z,89.33
2023-01-22T07:08:28.221Z,89.35
2023-01-22T07:10:54.719Z,89.03
2023-01-22T07:13:21.530Z,89.13
2023-01-22T07:15:48.640Z,89.12
2023-01-22T07:18:20.181Z,88.87
2023-01-22T07:20:47.450Z,89.14
2023-01-22T07:23:14.335Z,89.05
2023-01-22T07:25:41.096Z,89.17
2023-01-22T07:28:07.990Z,88.90
2023-01-22T07:33:39.907Z,88.82
2023-01-22T07:36:08.033Z,88.93
2023-01-22T07:38:34.622Z,88.99
2023-01-22T07:41:16.910Z,88.73
2023-01-22T07:43:52.884Z,88.53
2023-01-22T07:46:19.484Z,88.43
2023-01-22T07:48:46.429Z,88.39
2023-01-22T07:51:13.571Z,88.17
2023-01-22T07:53:40.388Z,88.19
2023-01-22T07:56:07.347Z,88.24
2023-01-22T07:58:37.109Z,88.17
2023-01-22T08:01:07.637Z,88.31
2023-01-22T08:03:35.007Z,88.31
2023-01-22T08:06:02.628Z,88.40
2023-01-22T08:08:29.200Z,88.32
2023-01-22T08:10:59.820Z,88.30
2023-01-22T08:13:26.880Z,88.32
2023-01-22T08:15:55.595Z,88.21
2023-01-22T08:18:23.193Z,88.19
2023-01-22T08:20:50.045Z,88.18
2023-01-22T08:23:21.863Z,88.07
2023-01-22T08:25:49.328Z,87.83
2023-01-22T08:28:19.550Z,88.05
2023-01-22T08:30:47.050Z,88.15
2023-01-22T08:33:16.079Z,88.38
2023-01-22T08:35:43.375Z,88.06
2023-01-22T08:38:10.745Z,87.97
2023-01-22T08:40:38.131Z,87.95
2023-01-22T08:43:10.223Z,87.97
2023-01-22T08:45:38.328Z,88.17
2023-01-22T08:48:05.626Z,87.92
2023-01-22T08:50:32.391Z,87.65
2023-01-22T08:52:58.952Z,87.82
2023-01-22T08:55:27.761Z,87.70
2023-01-22T08:57:55.605Z,87.50
2023-01-22T09:00:23.659Z,87.70
2023-01-22T09:02:50.124Z,87.74
2023-01-22T09:05:17.716Z,87.79
2023-01-22T09:07:44.210Z,87.70
2023-01-22T09:10:12.886Z,88.05
2023-01-22T09:12:40.347Z,87.87
2023-01-22T09:15:08.074Z,87.57
2023-01-22T09:17:34.785Z,87.82
2023-01-22T09:20:01.471Z,87.44
2023-01-22T09:22:28.677Z,87.37
2023-01-22T09:24:55.768Z,87.05
2023-01-22T09:27:22.337Z,86.98
2023-01-22T09:29:50.064Z,86.45
2023-01-22T09:32:17.064Z,86.31
2023-01-22T09:34:43.548Z,86.07
2023-01-22T09:37:11.815Z,86.14
2023-01-22T09:39:38.402Z,86.27
2023-01-22T09:42:07.584Z,86.30
2023-01-22T09:44:40.776Z,86.10
2023-01-22T09:47:15.427Z,86.10
2023-01-22T09:49:51.134Z,85.79
2023-01-22T09:52:18.024Z,85.69
2023-01-22T09:54:44.813Z,85.82
2023-01-22T09:57:30.640Z,85.73
2023-01-22T09:59:58.568Z,85.68
2023-01-22T10:02:46.325Z,86.00
2023-01-22T10:05:34.698Z,86.05
2023-01-22T10:08:09.201Z,85.79
2023-01-22T10:10:36.825Z,85.49
2023-01-22T10:13:33.758Z,85.58
2023-01-22T10:16:00.566Z,85.41
2023-01-22T10:18:30.245Z,85.37
2023-01-22T10:21:00.685Z,85.29
2023-01-22T10:23:27.327Z,85.01
2023-01-22T10:26:04.330Z,84.77
2023-01-22T10:28:31.186Z,85.30
2023-01-22T10:30:59.522Z,85.10
2023-01-22T10:33:28.122Z,84.80
2023-01-22T10:35:57.224Z,84.72
2023-01-22T10:38:31.461Z,84.65
2023-01-22T10:41:03.379Z,84.28
2023-01-22T10:43:36.323Z,84.52
2023-01-22T10:46:15.310Z,84.16
2023-01-22T10:48:41.943Z,84.39
2023-01-22T10:51:22.731Z,84.43
2023-01-22T10:53:57.739Z,84.09
2023-01-22T10:56:37.533Z,84.10
2023-01-22T10:59:20.724Z,84.05
2023-01-22T11:01:53.591Z,84.20
2023-01-22T11:04:28.362Z,83.76
2023-01-22T11:07:12.383Z,83.49
2023-01-22T11:09:51.286Z,83.90
2023-01-22T11:12:26.658Z,83.74
2023-01-22T11:15:08.148Z,84.06
2023-01-22T11:17:40.537Z,83.40
2023-01-22T11:20:28.798Z,83.90
2023-01-22T11:23:27.551Z,83.70
2023-01-22T11:26:35.318Z,84.08
2023-01-22T11:29:23.963Z,84.05
2023-01-22T11:32:11.302Z,84.12
2023-01-22T11:34:56.278Z,84.05
2023-01-22T11:37:39.830Z,84.58
2023-01-22T11:40:19.251Z,84.24
2023-01-22T11:43:01.034Z,84.41
2023-01-22T11:45:47.891Z,84.43
2023-01-22T11:48:35.232Z,84.04
2023-01-22T11:51:16.970Z,84.04
2023-01-22T11:54:03.409Z,83.99
2023-01-22T11:56:40.865Z,83.97
2023-01-22T11:59:15.015Z,83.86
2023-01-22T12:02:04.599Z,83.81
2023-01-22T12:05:08.736Z,84.30
2023-01-22T12:07:59.522Z,84.03
2023-01-22T12:10:38.336Z,83.89
2023-01-22T12:13:16.503Z,83.81
2023-01-22T12:16:06.142Z,83.85
2023-01-22T12:18:48.031Z,83.92
2023-01-22T12:21:44.153Z,84.03
2023-01-22T12:24:30.307Z,84.17
2023-01-22T12:27:12.160Z,83.72
2023-01-22T12:29:47.917Z,83.95
2023-01-22T12:32:19.140Z,84.02
2023-01-22T12:34:51.730Z,84.22
2023-01-22T12:37:21.731Z,83.74
2023-01-22T12:40:14.971Z,83.58
2023-01-22T12:42:49.697Z,83.79
2023-01-22T12:45:22.134Z,83.65
2023-01-22T12:48:06.762Z,84.03
2023-01-22T12:50:33.313Z,84.13
2023-01-22T12:53:00.754Z,84.17
2023-01-22T12:55:37.884Z,83.80
2023-01-22T12:58:05.111Z,84.08
2023-01-22T13:00:39.312Z,84.22
2023-01-22T13:03:31.390Z,83.93
2023-01-22T13:05:59.804Z,83.93
2023-01-22T13:08:35.650Z,84.34
2023-01-22T13:11:05.867Z,84.47
2023-01-22T13:13:58.518Z,84.29
2023-01-22T13:16:36.719Z,84.44
2023-01-22T13:19:29.765Z,84.67
2023-01-22T13:22:00.826Z,85.11
2023-01-22T13:24:27.361Z,84.82
2023-01-22T13:26:57.605Z,84.65
2023-01-22T13:29:29.343Z,84.59
2023-01-22T13:35:36.632Z,84.85
2023-01-22T13:38:03.183Z,85.21
2023-01-22T13:40:36.985Z,85.29
2023-01-22T13:43:13.582Z,84.92
2023-01-22T13:45:40.335Z,85.31
2023-01-22T13:48:11.046Z,85.43
2023-01-22T13:50:38.309Z,85.32
2023-01-22T13:53:04.930Z,85.33
2023-01-22T13:55:32.794Z,85.06
2023-01-22T13:58:04.415Z,85.33
2023-01-22T14:00:36.426Z,85.18
2023-01-22T14:03:03.865Z,85.37
2023-01-22T14:05:33.907Z,85.22
2023-01-22T14:08:10.105Z,85.30
2023-01-22T14:10:36.850Z,85.36
2023-01-22T14:13:09.351Z,85.70
2023-01-22T14:15:37.241Z,85.35
2023-01-22T14:18:11.918Z,85.60
2023-01-22T14:20:40.746Z,85.89
2023-01-22T14:23:08.028Z,85.77
2023-01-22T14:26:27.144Z,85.51
2023-01-22T14:28:56.937Z,85.86
2023-01-22T14:31:29.263Z,85.93
2023-01-22T14:33:55.928Z,86.06
2023-01-22T14:36:22.604Z,86.30
2023-01-22T14:38:52.941Z,86.28
2023-01-22T14:41:19.970Z,86.41
2023-01-22T14:43:46.576Z,86.24
2023-01-22T14:46:13.129Z,86.70
2023-01-22T14:48:39.759Z,86.63
2023-01-22T14:51:11.642Z,86.37
2023-01-22T14:53:38.845Z,86.29
2023-01-22T14:56:05.911Z,86.36
2023-01-22T14:58:32.732Z,86.36
2023-01-22T15:00:59.284Z,86.62
2023-01-22T15:03:29.291Z,86.28
2023-01-22T15:05:55.843Z,86.30
2023-01-22T15:08:22.386Z,86.51
2023-01-22T15:10:48.886Z,86.89
2023-01-22T15:13:15.401Z,87.01
2023-01-22T15:15:41.985Z,86.96
2023-01-22T15:18:08.501Z,86.81
2023-01-22T15:20:35.026Z,87.19
2023-01-22T15:23:01.651Z,86.93
2023-01-22T15:25:32.346Z,87.17
2023-01-22T15:27:59.052Z,87.15
2023-01-22T15:30:26.111Z,87.13
2023-01-22T15:32:52.784Z,87.27
2023-01-22T15:35:19.469Z,87.48
2023-01-22T15:37:47.591Z,87.83
2023-01-22T15:40:14.631Z,87.74
2023-01-22T15:42:43.986Z,88.05
2023-01-22T15:45:15.302Z,87.99
2023-01-22T15:47:44.081Z,87.95
2023-01-22T15:50:11.292Z,88.09
2023-01-22T15:52:37.940Z,88.09
2023-01-22T15:55:05.205Z,88.04
2023-01-22T15:57:31.944Z,88.46
2023-01-22T16:00:08.908Z,88.42
2023-01-22T16:02:40.774Z,88.25
2023-01-22T16:05:13.623Z,88.36
2023-01-22T16:07:40.195Z,88.45
2023-01-22T16:10:19.103Z,88.49
2023-01-22T16:12:55.437Z,88.54
2023-01-22T16:15:41.256Z,88.57
2023-01-22T16:18:07.752Z,88.52
2023-01-22T16:20:34.541Z,88.38
2023-01-22T16:23:01.231Z,88.52
2023-01-22T16:25:27.755Z,88.64
2023-01-22T16:27:54.227Z,88.61
2023-01-22T16:30:20.885Z,88.49
2023-01-22T16:32:47.646Z,88.54
2023-01-22T16:35:15.117Z,88.53
2023-01-22T16:37:44.336Z,88.57
2023-01-22T16:40:11.575Z,88.48
2023-01-22T16:42:38.289Z,88.51
2023-01-22T16:45:05.153Z,88.73
2023-01-22T16:47:31.879Z,88.43
2023-01-22T16:49:58.344Z,88.52
2023-01-22T16:52:27.923Z,88.79
2023-01-22T16:55:08.589Z,88.85
2023-01-22T16:57:35.376Z,88.78
2023-01-22T17:00:02.108Z,89.00
2023-01-22T17:02:28.678Z,88.71
2023-01-22T17:05:09.665Z,88.58
2023-01-22T17:07:37.379Z,88.71
2023-01-22T17:10:04.155Z,88.65
2023-01-22T17:12:32.952Z,88.85
2023-01-22T17:15:14.551Z,88.71
2023-01-22T17:17:41.379Z,88.82
2023-01-22T17:20:23.344Z,88.69
2023-01-22T17:22:49.821Z,88.76
2023-01-22T17:25:16.535Z,88.65
2023-01-22T17:27:43.581Z,89.05
2023-01-22T17:30:18.905Z,89.13
2023-01-22T17:33:02.025Z,89.22
2023-01-22T17:35:28.545Z,89.49
2023-01-22T17:37:55.018Z,89.36
2023-01-22T17:40:21.632Z,89.39
2023-01-22T17:42:48.150Z,89.43
2023-01-22T17:45:14.806Z,89.41
2023-01-22T17:47:44.778Z,89.21
2023-01-22T17:50:14.172Z,89.36
2023-01-22T17:52:43.433Z,89.58
2023-01-22T17:55:10.258Z,89.62
2023-01-22T17:57:36.782Z,89.67
2023-01-22T18:00:04.309Z,89.75
2023-01-22T18:02:30.995Z,89.63
2023-01-22T18:04:57.512Z,89.60
2023-01-22T18:07:24.155Z,89.67
2023-01-22T18:09:53.759Z,89.75
2023-01-22T18:12:20.308Z,89.83
2023-01-22T18:14:53.113Z,89.70
2023-01-22T18:17:19.585Z,89.90
2023-01-22T18:19:46.085Z,89.70
2023-01-22T18:22:12.809Z,90.01
2023-01-22T18:24:39.466Z,90.01
2023-01-22T18:27:06.715Z,89.94
2023-01-22T18:29:33.187Z,89.97
2023-01-22T18:31:59.779Z,89.95
2023-01-22T18:34:26.336Z,90.03
2023-01-22T18:36:53.053Z,89.80
2023-01-22T18:39:20.788Z,89.79
2023-01-22T18:41:47.451Z,89.65
2023-01-22T18:44:18.161Z,89.88
2023-01-22T18:46:48.233Z,89.96
2023-01-22T18:49:19.212Z,89.78
2023-01-22T18:51:46.263Z,89.99
2023-01-22T18:58:42.418Z,89.93
2023-01-22T19:03:58.874Z,90.11
2023-01-22T19:06:32.253Z,89.87
2023-01-22T19:09:02.651Z,89.91
2023-01-22T19:11:35.038Z,89.55
2023-01-22T19:14:03.146Z,89.75
2023-01-22T19:16:30.455Z,89.69
2023-01-22T19:19:11.323Z,89.93
2023-01-22T19:21:47.388Z,90.14
2023-01-22T19:24:16.436Z,89.98
2023-01-22T19:26:46.384Z,90.07
2023-01-22T19:29:17.258Z,89.61
2023-01-22T19:31:48.334Z,89.67
2023-01-22T19:34:23.214Z,89.40
2023-01-22T19:36:52.511Z,89.53
2023-01-22T19:39:21.482Z,89.54
2023-01-22T19:41:48.106Z,89.67
2023-01-22T19:44:15.107Z,89.49
2023-01-22T19:46:41.892Z,89.41
2023-01-22T19:49:08.907Z,89.53
2023-01-22T19:51:35.857Z,89.37
2023-01-22T19:54:04.138Z,89.35
2023-01-22T19:56:35.084Z,89.34
2023-01-22T19:59:06.008Z,89.26
2023-01-22T20:01:34.012Z,89.21
2023-01-22T20:04:00.674Z,89.41
2023-01-22T20:06:27.960Z,89.58
2023-01-22T20:09:13.509Z,89.65
2023-01-22T20:11:45.719Z,89.76
2023-01-22T20:14:12.406Z,89.79
2023-01-22T20:16:40.816Z,89.73
2023-01-22T20:19:07.524Z,89.87
2023-01-22T20:21:34.575Z,89.71
2023-01-22T20:24:01.491Z,89.54
2023-01-22T20:26:28.702Z,89.51
2023-01-22T20:28:55.913Z,89.45
2023-01-22T20:31:25.102Z,89.62
2023-01-22T20:33:53.314Z,89.62
2023-01-22T20:36:21.552Z,89.70
2023-01-22T20:38:52.647Z,89.40
2023-01-22T20:41:20.807Z,89.32
2023-01-22T20:43:47.695Z,89.39
2023-01-22T20:46:17.038Z,89.39
2023-01-22T20:48:44.676Z,89.53
2023-01-22T20:51:17.455Z,89.19
2023-01-22T20:53:45.394Z,88.97
2023-01-22T20:56:13.395Z,89.20
2023-01-22T20:58:40.275Z,89.45
2023-01-22T21:01:09.956Z,89.24
2023-01-22T21:03:37.026Z,89.46
2023-01-22T21:06:06.055Z,89.76
2023-01-22T21:08:32.712Z,89.96
2023-01-22T21:11:01.986Z,89.41
2023-01-22T21:13:29.259Z,89.52
2023-01-22T21:15:56.246Z,89.61
2023-01-22T21:18:23.858Z,89.63
2023-01-22T21:20:50.689Z,89.57
2023-01-22T21:23:17.448Z,89.51
2023-01-22T21:25:44.070Z,89.59
2023-01-22T21:28:10.955Z,89.63
2023-01-22T21:30:37.711Z,89.81
2023-01-22T21:33:04.330Z,89.66
2023-01-22T21:35:31.109Z,89.68
2023-01-22T21:37:57.873Z,89.85
2023-01-22T21:40:24.638Z,89.79
2023-01-22T21:43:10.176Z,89.86
2023-01-22T21:46:01.223Z,89.88
2023-01-22T21:48:29.394Z,89.84
2023-01-22T21:50:56.317Z,89.80
2023-01-22T21:53:23.165Z,89.80
2023-01-22T21:55:51.895Z,89.76
2023-01-22T21:58:18.627Z,89.68
2023-01-22T22:00:45.266Z,89.83
2023-01-22T22:03:11.886Z,89.56
2023-01-22T22:05:40.143Z,89.88
2023-01-22T22:08:06.708Z,89.57
2023-01-22T22:10:33.332Z,89.71
2023-01-22T22:12:59.931Z,89.42
2023-01-22T22:15:26.550Z,89.57
2023-01-22T22:17:53.124Z,89.66
2023-01-22T22:20:20.063Z,89.37
2023-01-22T22:22:47.006Z,89.71
2023-01-22T22:25:13.572Z,89.57
2023-01-22T22:27:40.156Z,89.49
2023-01-22T22:30:07.425Z,89.53
2023-01-22T22:32:34.010Z,89.41
2023-01-22T22:35:00.496Z,89.54
2023-01-22T22:37:27.132Z,89.54
2023-01-22T22:39:53.819Z,89.67
2023-01-22T22:42:20.449Z,89.61
2023-01-22T22:44:47.005Z,89.54
2023-01-22T22:47:13.559Z,89.89
2023-01-22T22:49:40.198Z,90.20
2023-01-22T22:52:06.871Z,90.12
2023-01-22T22:54:33.423Z,90.36
2023-01-22T22:57:00.036Z,90.10
2023-01-22T22:59:26.664Z,90.24
2023-01-22T23:01:53.288Z,90.36
2023-01-22T23:04:19.951Z,90.42
2023-01-22T23:06:47.318Z,90.14
2023-01-22T23:09:19.811Z,90.31
2023-01-22T23:11:47.323Z,90.21
2023-01-22T23:14:14.100Z,90.01
2023-01-22T23:16:43.038Z,90.14
2023-01-22T23:19:24.642Z,89.84
2023-01-22T23:21:54.359Z,89.94
2023-01-22T23:24:20.970Z,89.95
2023-01-22T23:26:48.039Z,89.48
2023-01-22T23:29:18.247Z,89.51
2023-01-22T23:31:44.999Z,89.64
2023-01-22T23:34:14.751Z,89.90
2023-01-22T23:36:44.436Z,89.82
2023-01-22T23:39:15.679Z,89.49
2023-01-22T23:41:43.042Z,89.86
2023-01-22T23:44:10.058Z,89.72
2023-01-22T23:46:36.658Z,90.11
2023-01-22T23:49:04.496Z,90.28
2023-01-22T23:51:31.568Z,90.02
2023-01-22T23:53:58.247Z,90.04
2023-01-22T23:56:27.971Z,89.75
2023-01-22T23:58:55.875Z,89.74
